Flight Track Log - Related Links

Times and Time Zones

All times are in EDT time to prevent confusion due to time zone crossing. See the SWA862 flight status page for this flight to view local times or setup timezone preferences in your user account.

Time Position Orientation Groundspeed Altitude Reporting Facility
EDT Latitude Longitude Course Direction KTS MPH feet Rate Location/Type
Mon 06:13:35 PM 27.9667 -82.5500 180° South 171 197 700  Level Tampa TRACON
Mon 06:14:30 PM 27.9167 -82.5500 180° South 198 228 2,200 2,765 Climbing Tampa TRACON
Mon 06:15:30 PM 27.8667 -82.6000 221° Southwest 239 275 6,000 3,137 Climbing Tampa TRACON
Mon 06:17:03 PM 27.9619 -82.6222 348° North 247 284 10,200 2,588 Climbing Jacksonville Center
Mon 06:18:03 PM 28.0536 -82.6128 North 280 322 12,600 2,850 Climbing Jacksonville Center
Mon 06:19:03 PM 28.1539 -82.6053 North 325 374 15,900 2,850 Climbing Jacksonville Center
Mon 06:20:03 PM 28.2561 -82.5933 North 349 402 18,300 2,600 Climbing Jacksonville Center
Mon 06:21:03 PM 28.3667 -82.5811 North 376 433 21,100 2,650 Climbing Jacksonville Center
Mon 06:22:03 PM 28.4792 -82.5856 358° North 389 448 23,600 2,300 Climbing Jacksonville Center
Mon 06:23:03 PM 28.5942 -82.5875 359° North 405 466 25,700 1,200 Climbing Jacksonville Center
Mon 06:24:03 PM 28.7278 -82.5967 357° North 416 479 26,000 1,100 Climbing Jacksonville Center
Mon 06:25:03 PM 28.8467 -82.6128 353° North 422 486 27,900 1,950 Climbing Jacksonville Center
Mon 06:26:03 PM 28.9656 -82.6292 353° North 422 486 29,900 1,750 Climbing Jacksonville Center
Mon 06:27:03 PM 29.0867 -82.6478 352° North 428 493 31,400 1,650 Climbing Jacksonville Center
Mon 06:28:03 PM 29.2100 -82.6642 353° North 433 498 33,200 1,750 Climbing Jacksonville Center
Mon 06:29:03 PM 29.3311 -82.6806 353° North 433 498 34,900 1,800 Climbing Jacksonville Center
Mon 06:30:03 PM 29.4522 -82.6922 355° North 438 504 36,800 1,700 Climbing Jacksonville Center
Mon 06:31:03 PM 29.5650 -82.6897 North 438 504 38,300 850 Climbing Jacksonville Center
Mon 06:32:03 PM 29.6942 -82.6344 20° North 444 511 38,500 350 Climbing Jacksonville Center
Mon 06:33:03 PM 29.8194 -82.5886 18° North 450 518 39,000 250 Climbing Jacksonville Center
Mon 06:34:03 PM 29.9403 -82.5450 17° North 458 527 39,000  Level Jacksonville Center
Mon 06:35:03 PM 30.0508 -82.5086 16° North 458 527 39,000  Level Jacksonville Center
Mon 06:36:03 PM 30.1719 -82.4650 17° North 458 527 39,000  Level Jacksonville Center
Mon 06:37:03 PM 30.2928 -82.4211 17° North 458 527 39,000  Level Jacksonville Center
Mon 06:38:03 PM 30.4158 -82.3747 18° North 458 527 39,000  Level Jacksonville Center
Mon 06:39:03 PM 30.5492 -82.3208 19° North 458 527 39,000  Level Jacksonville Center
Mon 06:40:03 PM 30.6575 -82.2864 15° North 458 527 39,000  Level Jacksonville Center
Mon 06:41:03 PM 30.7764 -82.2422 18° North 458 527 39,000  Level Jacksonville Center
Mon 06:42:03 PM 30.8953 -82.1978 18° North 458 527 39,000  Level Jacksonville Center
Mon 06:43:03 PM 31.0181 -82.1531 17° North 453 521 39,000  Level Jacksonville Center
Mon 06:44:03 PM 31.1389 -82.1086 17° North 453 521 39,000  Level Jacksonville Center
Mon 06:45:03 PM 31.2556 -82.0664 17° North 453 521 39,000  Level Jacksonville Center
Mon 06:46:03 PM 31.3744 -82.0239 17° North 447 514 39,000  Level Jacksonville Center
Mon 06:47:03 PM 31.5033 -81.9692 20° North 442 509 39,000  Level Jacksonville Center
Mon 06:48:03 PM 31.6200 -81.9239 18° North 442 509 39,000  Level Jacksonville Center
Mon 06:49:03 PM 31.7261 -81.8839 18° North 437 503 39,000  Level Jacksonville Center
Mon 06:50:03 PM 31.8553 -81.8358 18° North 442 509 39,000  Level Jacksonville Center
Mon 06:51:03 PM 31.9717 -81.7931 17° North 442 509 39,000  Level Jacksonville Center
Mon 06:52:03 PM 32.0800 -81.7525 18° North 442 509 39,000  Level Jacksonville Center
Mon 06:53:03 PM 32.2111 -81.7017 18° North 442 509 39,000  Level Jacksonville Center
Mon 06:54:03 PM 32.3172 -81.6611 18° North 442 509 39,000  Level Jacksonville Center
Mon 06:55:03 PM 32.4481 -81.6100 18° North 442 509 39,000  Level Jacksonville Center
Mon 06:56:03 PM 32.5667 -81.5639 18° North 442 509 39,000  Level Jacksonville Center
Mon 06:57:03 PM 32.6703 -81.5008 27° Northeast 453 521 39,000  Level Jacksonville Center
Mon 06:58:03 PM 32.7803 -81.4250 30° Northeast 453 521 39,000  Level Jacksonville Center
Mon 06:59:03 PM 32.8942 -81.3514 28° Northeast 453 521 39,000  Level Jacksonville Center
Mon 07:00:03 PM 33.0039 -81.2800 29° Northeast 453 521 39,000  Level Jacksonville Center
Mon 07:01:03 PM 33.1114 -81.2061 30° Northeast 448 516 39,000  Level Jacksonville Center
Mon 07:02:03 PM 33.2231 -81.1322 29° Northeast 448 516 39,000  Level Jacksonville Center
Mon 07:03:03 PM 33.3328 -81.0578 30° Northeast 448 516 39,000  Level Jacksonville Center
Mon 07:04:03 PM 33.4422 -80.9858 29° Northeast 448 516 39,000  Level Jacksonville Center
Mon 07:05:03 PM 33.5517 -80.9111 30° Northeast 448 516 39,000  Level Jacksonville Center
Mon 07:06:03 PM 33.6611 -80.8389 29° Northeast 454 522 39,000 -900 Level Jacksonville Center
Mon 07:07:03 PM 33.7683 -80.7639 30° Northeast 454 522 37,200 -2,200 Descending Jacksonville Center
Mon 07:08:03 PM 33.8736 -80.6939 29° Northeast 441 507 34,600 -2,700 Descending Jacksonville Center
Mon 07:09:03 PM 33.9808 -80.6186 30° Northeast 436 502 31,800 -2,550 Descending Jacksonville Center
Mon 07:10:03 PM 34.0858 -80.5456 30° Northeast 436 502 29,500 -2,300 Descending Jacksonville Center
Mon 07:11:03 PM 34.1867 -80.4778 29° Northeast 431 496 27,200 -1,782 Descending Jacksonville Center
Mon 07:13:25 PM 34.4250 -80.3125 30° Northeast 412 474 23,500 -1,241 Descending Washington Center
Mon 07:14:26 PM 34.5194 -80.2450 30° Northeast 397 457 23,000 -250 Descending Washington Center
Mon 07:15:25 PM 34.6081 -80.1642 37° Northeast 397 457 23,000  Level Washington Center
Mon 07:16:25 PM 34.6969 -80.0783 38° Northeast 397 457 23,000  Level Washington Center
Mon 07:17:25 PM 34.7875 -79.9972 36° Northeast 404 465 23,000  Level Washington Center
Mon 07:18:25 PM 34.8783 -79.9111 38° Northeast 404 465 23,000  Level Washington Center
Mon 07:19:26 PM 34.9689 -79.8272 37° Northeast 404 465 23,000  Level Washington Center
Mon 07:20:25 PM 35.0556 -79.7403 39° Northeast 399 459 23,000 -504 Level Washington Center
Mon 07:21:25 PM 35.1439 -79.6586 37° Northeast 399 459 22,000 -1,348 Descending Washington Center
Mon 07:21:54 PM 35.1847 -79.6200 38° Northeast 405 466 21,000 -1,967 Descending Washington Center
Mon 07:22:26 PM 35.2300 -79.5792 36° Northeast 399 459 20,000 -1,978 Descending Washington Center
Mon 07:23:25 PM 35.3236 -79.5200 27° Northeast 368 423 18,000 -1,815 Descending Washington Center
Mon 07:24:25 PM 35.4050 -79.4578 32° Northeast 357 411 16,400 -1,250 Descending Washington Center
Mon 07:25:25 PM 35.4819 -79.4028 30° Northeast 334 384 15,500 -1,138 Descending Washington Center
Mon 07:26:21 PM 35.5383 -79.3367 44° Northeast 310 357 14,200 -1,366 Descending Washington Center
Mon 07:27:28 PM 35.5911 -79.2444 55° Northeast 305 351 12,700 -1,452 Descending Washington Center
Mon 07:28:25 PM 35.6439 -79.1575 53° Northeast 307 353 11,200 -1,373 Descending Washington Center
Mon 07:29:26 PM 35.6944 -79.0728 54° Northeast 309 356 10,000 -1,350 Descending Washington Center
Mon 07:30:25 PM 35.7447 -78.9906 53° Northeast 309 356 8,500 -1,008 Descending Washington Center
Mon 07:31:25 PM 35.7886 -78.9181 53° Northeast 297 342 8,000 -238 Descending Washington Center
Mon 07:32:31 PM 35.7975 -78.8239 83° East 259 298 8,000 -238 Level Washington Center
Mon 07:33:31 PM 35.8144 -78.7350 77° East 260 299 7,500 -843 Descending Washington Center
Mon 07:34:32 PM 35.8536 -78.6647 55° Northeast 253 291 6,300 -1,397 Descending Washington Center
Mon 07:35:27 PM 35.8969 -78.6075 47° Northeast 251 289 4,800 -1,200 Descending Washington Center
Mon 07:36:27 PM 35.9575 -78.6044 North 232 267 4,000 -1,041 Descending Washington Center
Mon 07:37:28 PM 35.9517 -78.6736 264° West 201 231 2,700 -1,140 Descending Washington Center
Mon 07:38:28 PM 35.9231 -78.7289 237° Southwest 180 207 1,700 -893 Descending Washington Center
Mon 07:39:29 PM 35.8931 -78.7586 219° Southwest 136 157 900 -787 Descending Washington Center
Mon 07:41:00 PM 35.8667 -78.7833 241° Southwest  Level FlightAware Approximate

Login

Don't have an account? Register now (free) for customized features, flight alerts, and more!